Time;durP1;ratioP1;P1;durP2;ratioP2;P2;SDS_P1;SDS_P2;PMS_P1;PMS_P2;Temp;Humidity;BMP_temperature;BMP_pressure;BME280_temperature;BME280_humidity;BME280_pressure;Samples;Min_cycle;Max_cycle;Signal;HPM_P1;HPM_P2
2023/09/15 00:01:21;;;;;;;1.50;1.13;;;;;;;;;;5076511;28;20031;-78
2023/09/15 00:03:47;;;;;;;1.60;1.20;;;;;;;;;;5076125;28;20111;-78
2023/09/15 00:06:15;;;;;;;0.77;0.73;;;;;;;;;;5077301;28;20020;-78
2023/09/15 00:08:41;;;;;;;0.95;0.88;;;;;;;;;;5094231;28;20020;-78
2023/09/15 00:11:14;;;;;;;1.05;1.00;;;;;;;;;;5075800;28;20052;-78
2023/09/15 00:13:40;;;;;;;1.10;1.00;;;;;;;;;;5076153;28;20031;-78
2023/09/15 00:16:06;;;;;;;1.08;0.95;;;;;;;;;;5076193;28;20119;-78
2023/09/15 00:18:33;;;;;;;1.40;0.90;;;;;;;;;;5076151;28;20470;-79
2023/09/15 00:20:59;;;;;;;0.88;0.70;;;;;;;;;;5076244;28;20024;-76
2023/09/15 00:23:25;;;;;;;1.45;1.08;;;;;;;;;;5076042;28;20021;-77
2023/09/15 00:25:54;;;;;;;0.68;0.68;;;;;;;;;;5094063;28;20026;-77
2023/09/15 00:28:21;;;;;;;0.98;0.88;;;;;;;;;;5075738;28;20020;-77
2023/09/15 00:30:50;;;;;;;0.98;0.70;;;;;;;;;;5076129;28;20024;-78
2023/09/15 00:33:17;;;;;;;1.05;0.80;;;;;;;;;;5093573;28;20361;-78
2023/09/15 00:35:43;;;;;;;1.38;0.88;;;;;;;;;;5075749;28;20068;-77
2023/09/15 00:38:09;;;;;;;1.27;0.98;;;;;;;;;;5076062;28;20081;-77
2023/09/15 00:40:36;;;;;;;0.50;0.50;;;;;;;;;;5093747;28;20024;-77
2023/09/15 00:43:02;;;;;;;1.30;0.90;;;;;;;;;;5075883;28;20119;-77
2023/09/15 00:45:28;;;;;;;1.60;1.40;;;;;;;;;;5075670;28;20039;-78
2023/09/15 00:47:58;;;;;;;3.40;0.93;;;;;;;;;;5093800;28;20020;-78
2023/09/15 00:50:29;;;;;;;0.65;0.65;;;;;;;;;;5075770;28;20024;-77
2023/09/15 00:53:01;;;;;;;2.25;1.50;;;;;;;;;;5076066;28;20020;-77
2023/09/15 00:55:27;;;;;;;0.50;0.50;;;;;;;;;;5076206;28;20028;-77
2023/09/15 00:57:54;;;;;;;0.60;0.60;;;;;;;;;;5075665;28;20047;-77
2023/09/15 01:00:20;;;;;;;0.80;0.80;;;;;;;;;;5093575;28;20031;-77
2023/09/15 01:02:47;;;;;;;1.38;1.02;;;;;;;;;;5076091;28;20020;-77
2023/09/15 01:05:20;;;;;;;1.45;0.80;;;;;;;;;;5093704;28;20028;-77
2023/09/15 01:07:47;;;;;;;1.35;0.85;;;;;;;;;;5093762;28;20111;-78
2023/09/15 01:10:14;;;;;;;0.77;0.77;;;;;;;;;;5075255;28;20437;-77
2023/09/15 01:12:41;;;;;;;0.70;0.70;;;;;;;;;;5076322;28;20115;-77
2023/09/15 01:15:07;;;;;;;1.77;1.40;;;;;;;;;;5075135;28;20032;-77
2023/09/15 01:17:42;;;;;;;0.68;0.68;;;;;;;;;;5075476;28;20032;-78
2023/09/15 01:20:13;;;;;;;2.15;0.82;;;;;;;;;;5075553;28;20020;-78
2023/09/15 01:22:58;;;;;;;1.17;0.95;;;;;;;;;;5075120;28;20356;-78
2023/09/15 01:25:24;;;;;;;2.35;0.70;;;;;;;;;;5076283;28;20122;-77
2023/09/15 01:27:55;;;;;;;1.25;0.90;;;;;;;;;;5078465;28;20028;-78
2023/09/15 01:30:24;;;;;;;1.38;0.90;;;;;;;;;;5079572;28;20062;-78
2023/09/15 01:32:51;;;;;;;0.80;0.80;;;;;;;;;;5097259;28;20103;-77
2023/09/15 01:35:17;;;;;;;0.80;0.80;;;;;;;;;;5096888;28;20353;-77
2023/09/15 01:37:44;;;;;;;1.00;0.80;;;;;;;;;;5079247;28;20020;-78
2023/09/15 01:40:11;;;;;;;0.70;0.70;;;;;;;;;;5079341;28;20133;-78
2023/09/15 01:42:38;;;;;;;1.10;0.90;;;;;;;;;;5079142;28;20065;-77
2023/09/15 01:45:04;;;;;;;0.80;0.70;;;;;;;;;;5079170;28;20031;-78
2023/09/15 01:47:31;;;;;;;0.73;0.73;;;;;;;;;;5097330;28;20071;-78
2023/09/15 01:49:58;;;;;;;0.60;0.60;;;;;;;;;;5078820;28;20020;-78
2023/09/15 01:52:24;;;;;;;0.77;0.77;;;;;;;;;;5079552;28;20027;-78
2023/09/15 01:54:53;;;;;;;0.85;0.82;;;;;;;;;;5078920;28;20028;-77
2023/09/15 01:57:19;;;;;;;1.02;0.80;;;;;;;;;;5078755;28;20051;-78
2023/09/15 01:59:45;;;;;;;1.17;0.80;;;;;;;;;;5078861;28;20371;-78
2023/09/15 02:02:11;;;;;;;0.98;0.88;;;;;;;;;;5078850;28;20024;-78
2023/09/15 02:04:38;;;;;;;0.63;0.63;;;;;;;;;;5078489;28;20035;-78
2023/09/15 02:07:05;;;;;;;0.95;0.80;;;;;;;;;;5078704;28;20028;-77
2023/09/15 02:09:31;;;;;;;0.98;0.88;;;;;;;;;;5078136;28;20040;-77
2023/09/15 02:11:57;;;;;;;0.70;0.70;;;;;;;;;;5079582;28;20027;-77
2023/09/15 02:14:23;;;;;;;1.30;0.90;;;;;;;;;;5078650;28;20121;-77
2023/09/15 02:16:51;;;;;;;1.58;0.98;;;;;;;;;;5096490;28;20523;-77
2023/09/15 02:19:18;;;;;;;0.80;0.80;;;;;;;;;;5078621;28;20024;-77
2023/09/15 02:21:45;;;;;;;1.38;1.00;;;;;;;;;;5078621;28;20016;-77
2023/09/15 02:24:12;;;;;;;0.70;0.70;;;;;;;;;;5096362;28;20107;-77
2023/09/15 02:26:40;;;;;;;1.77;1.05;;;;;;;;;;5097266;28;20020;-77
2023/09/15 02:29:06;;;;;;;1.85;0.85;;;;;;;;;;5096204;28;20422;-77
2023/09/15 02:31:32;;;;;;;1.35;0.85;;;;;;;;;;5077763;28;20020;-77
2023/09/15 02:33:59;;;;;;;0.85;0.82;;;;;;;;;;5096922;28;20043;-77
2023/09/15 02:36:26;;;;;;;1.10;0.77;;;;;;;;;;5079169;28;20390;-77
2023/09/15 02:38:54;;;;;;;0.65;0.65;;;;;;;;;;5077680;28;20111;-77
2023/09/15 02:41:20;;;;;;;0.70;0.70;;;;;;;;;;5096780;28;20049;-76
2023/09/15 02:43:48;;;;;;;0.80;0.70;;;;;;;;;;5078096;28;20020;-79
2023/09/15 02:46:14;;;;;;;1.02;1.02;;;;;;;;;;5077765;28;20020;-76
2023/09/15 02:48:42;;;;;;;0.55;0.55;;;;;;;;;;5077950;28;20016;-77
2023/09/15 02:51:08;;;;;;;0.82;0.80;;;;;;;;;;5078065;28;20426;-78
2023/09/15 02:53:34;;;;;;;0.68;0.68;;;;;;;;;;5095855;28;20058;-77
2023/09/15 02:56:04;;;;;;;0.75;0.70;;;;;;;;;;5077903;28;20034;-77
2023/09/15 02:58:31;;;;;;;0.63;0.63;;;;;;;;;;5096293;28;20070;-77
2023/09/15 03:00:57;;;;;;;0.82;0.82;;;;;;;;;;5077842;28;20026;-77
2023/09/15 03:03:24;;;;;;;0.60;0.60;;;;;;;;;;5096528;28;20016;-78
2023/09/15 03:05:50;;;;;;;0.65;0.63;;;;;;;;;;5096007;28;20030;-77
2023/09/15 03:08:16;;;;;;;1.10;1.05;;;;;;;;;;5095945;28;20020;-77
2023/09/15 03:10:42;;;;;;;0.77;0.70;;;;;;;;;;5077682;28;20048;-77
2023/09/15 03:13:10;;;;;;;0.70;0.70;;;;;;;;;;5095841;28;20047;-78
2023/09/15 03:15:39;;;;;;;1.13;0.77;;;;;;;;;;5077559;28;20016;-77
2023/09/15 03:18:05;;;;;;;0.85;0.85;;;;;;;;;;5077509;28;20024;-78
2023/09/15 03:20:31;;;;;;;0.85;0.73;;;;;;;;;;5095525;28;20024;-77
2023/09/15 03:22:59;;;;;;;0.70;0.70;;;;;;;;;;5077525;28;20467;-77
2023/09/15 03:25:25;;;;;;;0.77;0.77;;;;;;;;;;5096014;28;20020;-78
2023/09/15 03:27:53;;;;;;;1.85;0.63;;;;;;;;;;5088786;28;20016;-77
2023/09/15 03:30:19;;;;;;;1.05;0.90;;;;;;;;;;5102180;28;20020;-77
2023/09/15 03:32:45;;;;;;;0.60;0.60;;;;;;;;;;5095406;28;20099;-78
2023/09/15 03:35:11;;;;;;;0.60;0.60;;;;;;;;;;5076720;28;20031;-77
2023/09/15 03:37:38;;;;;;;1.40;1.17;;;;;;;;;;5077118;28;20024;-78
2023/09/15 03:40:05;;;;;;;1.23;1.13;;;;;;;;;;5077100;28;20069;-78
2023/09/15 03:42:31;;;;;;;0.77;0.77;;;;;;;;;;5076762;28;20020;-77
2023/09/15 03:44:58;;;;;;;0.80;0.80;;;;;;;;;;5076963;28;20394;-77
2023/09/15 03:47:24;;;;;;;1.90;0.90;;;;;;;;;;5076586;28;20430;-78
2023/09/15 03:49:50;;;;;;;0.57;0.57;;;;;;;;;;5076139;28;20032;-77
2023/09/15 03:52:16;;;;;;;0.60;0.60;;;;;;;;;;5094948;28;20031;-77
2023/09/15 03:54:42;;;;;;;1.48;1.00;;;;;;;;;;5076316;28;20469;-78
2023/09/15 03:57:08;;;;;;;0.68;0.68;;;;;;;;;;5076557;28;20038;-78
2023/09/15 03:59:35;;;;;;;1.23;0.80;;;;;;;;;;5076626;28;20042;-77
2023/09/15 04:02:03;;;;;;;0.70;0.70;;;;;;;;;;5076267;28;20077;-77
2023/09/15 04:04:29;;;;;;;0.93;0.80;;;;;;;;;;5094905;28;20028;-77
2023/09/15 04:06:55;;;;;;;0.88;0.77;;;;;;;;;;5076508;28;20494;-77
2023/09/15 04:09:25;;;;;;;1.13;0.85;;;;;;;;;;5076274;28;20376;-77
2023/09/15 04:11:51;;;;;;;1.30;0.90;;;;;;;;;;5076152;28;20096;-77
2023/09/15 04:14:17;;;;;;;0.70;0.70;;;;;;;;;;5094503;28;20063;-77
2023/09/15 04:16:43;;;;;;;0.88;0.70;;;;;;;;;;5075655;28;20024;-77
2023/09/15 04:19:10;;;;;;;0.60;0.60;;;;;;;;;;5076286;28;20460;-77
2023/09/15 04:21:38;;;;;;;1.38;0.85;;;;;;;;;;5094371;28;20043;-78
2023/09/15 04:24:05;;;;;;;1.27;0.98;;;;;;;;;;5094322;28;20020;-78
2023/09/15 04:26:31;;;;;;;1.15;0.95;;;;;;;;;;5094516;28;20016;-77
2023/09/15 04:28:58;;;;;;;1.27;1.17;;;;;;;;;;5076089;28;20521;-78
2023/09/15 04:31:24;;;;;;;3.67;1.08;;;;;;;;;;5075704;28;20483;-77
2023/09/15 04:33:50;;;;;;;1.15;0.85;;;;;;;;;;5076242;28;20378;-77
2023/09/15 04:36:17;;;;;;;0.68;0.68;;;;;;;;;;5076042;28;20031;-77
2023/09/15 04:38:43;;;;;;;0.70;0.70;;;;;;;;;;5075658;28;20016;-77
2023/09/15 04:41:09;;;;;;;0.70;0.70;;;;;;;;;;5075975;28;20188;-77
2023/09/15 04:43:35;;;;;;;1.00;0.80;;;;;;;;;;5093414;28;20089;-78
2023/09/15 04:46:02;;;;;;;1.23;1.00;;;;;;;;;;5075863;28;20020;-77
2023/09/15 04:48:28;;;;;;;1.20;0.98;;;;;;;;;;5075818;28;20372;-77
2023/09/15 04:50:54;;;;;;;0.73;0.70;;;;;;;;;;5075287;28;20024;-78
2023/09/15 04:53:20;;;;;;;0.80;0.80;;;;;;;;;;5076324;28;20375;-78
2023/09/15 04:55:48;;;;;;;0.82;0.70;;;;;;;;;;5093765;28;20028;-77
2023/09/15 04:58:14;;;;;;;1.20;1.00;;;;;;;;;;5093239;28;20024;-78
2023/09/15 05:00:40;;;;;;;1.02;0.90;;;;;;;;;;5076154;28;20455;-77
2023/09/15 05:03:08;;;;;;;1.42;0.98;;;;;;;;;;5075800;28;20020;-78
2023/09/15 05:05:34;;;;;;;1.15;0.88;;;;;;;;;;5075401;28;20483;-77
2023/09/15 05:08:00;;;;;;;1.05;0.93;;;;;;;;;;5075714;28;20024;-78
2023/09/15 05:10:26;;;;;;;1.60;1.00;;;;;;;;;;5093728;28;20102;-78
2023/09/15 05:12:53;;;;;;;0.80;0.80;;;;;;;;;;5075504;28;20103;-78
2023/09/15 05:15:19;;;;;;;1.58;0.70;;;;;;;;;;5075597;28;20024;-78
2023/09/15 05:17:46;;;;;;;2.10;1.33;;;;;;;;;;5075704;28;20430;-77
2023/09/15 05:20:12;;;;;;;5.05;1.10;;;;;;;;;;5075180;28;20028;-77
2023/09/15 05:22:38;;;;;;;2.20;1.00;;;;;;;;;;5076172;28;20084;-77
2023/09/15 05:25:04;;;;;;;1.70;1.10;;;;;;;;;;5075909;28;20031;-77
2023/09/15 05:27:34;;;;;;;0.70;0.70;;;;;;;;;;5075253;28;20026;-78
2023/09/15 05:30:00;;;;;;;0.88;0.75;;;;;;;;;;5075972;28;20349;-77
2023/09/15 05:32:26;;;;;;;2.17;1.33;;;;;;;;;;5093208;28;20016;-77
2023/09/15 05:34:52;;;;;;;0.68;0.68;;;;;;;;;;5075333;28;20028;-77
2023/09/15 05:37:18;;;;;;;0.77;0.77;;;;;;;;;;5075744;28;20096;-77
2023/09/15 05:39:44;;;;;;;1.27;0.95;;;;;;;;;;5075053;28;20080;-76
2023/09/15 05:42:10;;;;;;;1.33;0.95;;;;;;;;;;5093170;28;20053;-77
2023/09/15 05:44:36;;;;;;;1.48;0.90;;;;;;;;;;5075373;28;20043;-77
2023/09/15 05:47:02;;;;;;;1.52;0.85;;;;;;;;;;5074962;28;20030;-79
2023/09/15 05:49:29;;;;;;;2.83;1.30;;;;;;;;;;5093602;28;20095;-77
2023/09/15 05:51:55;;;;;;;1.10;0.80;;;;;;;;;;5093660;28;20019;-76
2023/09/15 05:54:21;;;;;;;3.80;1.08;;;;;;;;;;5074849;28;20020;-76
2023/09/15 05:56:47;;;;;;;0.90;0.75;;;;;;;;;;5075219;28;20024;-77
2023/09/15 05:59:13;;;;;;;1.50;1.05;;;;;;;;;;5075183;28;20024;-77
2023/09/15 06:01:46;;;;;;;0.98;0.80;;;;;;;;;;5074788;28;20032;-77
2023/09/15 06:04:12;;;;;;;0.70;0.70;;;;;;;;;;5075454;28;20024;-77
2023/09/15 06:06:38;;;;;;;0.93;0.80;;;;;;;;;;5092907;28;20476;-77
2023/09/15 06:09:04;;;;;;;3.15;1.38;;;;;;;;;;5074749;28;20020;-76
2023/09/15 06:11:30;;;;;;;1.65;0.98;;;;;;;;;;5074650;28;20044;-77
2023/09/15 06:13:56;;;;;;;1.02;0.65;;;;;;;;;;5078589;28;20046;-76
2023/09/15 06:16:23;;;;;;;1.15;1.02;;;;;;;;;;5096493;28;20049;-76
2023/09/15 06:18:49;;;;;;;1.42;0.93;;;;;;;;;;5078528;28;20031;-77
2023/09/15 06:21:15;;;;;;;1.98;1.17;;;;;;;;;;5096566;28;20049;-77
2023/09/15 06:23:41;;;;;;;1.60;1.15;;;;;;;;;;5078123;28;20132;-78
2023/09/15 06:26:08;;;;;;;1.00;0.90;;;;;;;;;;5078374;28;20062;-77
2023/09/15 06:28:34;;;;;;;0.80;0.80;;;;;;;;;;5096694;28;20020;-77
2023/09/15 06:31:00;;;;;;;2.35;1.30;;;;;;;;;;5078496;28;20028;-77
2023/09/15 06:33:26;;;;;;;1.85;1.02;;;;;;;;;;5078316;28;20113;-76
2023/09/15 06:35:53;;;;;;;1.52;1.00;;;;;;;;;;5096016;28;20024;-77
2023/09/15 06:38:19;;;;;;;0.60;0.60;;;;;;;;;;5078519;28;20472;-77
2023/09/15 06:40:46;;;;;;;2.13;1.13;;;;;;;;;;5078176;28;20047;-76
2023/09/15 06:43:12;;;;;;;3.20;1.98;;;;;;;;;;5078464;28;20111;-77
2023/09/15 06:45:38;;;;;;;2.65;1.52;;;;;;;;;;5078069;28;20118;-77
2023/09/15 06:48:05;;;;;;;2.53;0.98;;;;;;;;;;5077826;28;20028;-77
2023/09/15 06:50:31;;;;;;;1.30;1.10;;;;;;;;;;5077753;28;20094;-77
2023/09/15 06:52:57;;;;;;;2.00;1.13;;;;;;;;;;5077954;28;20459;-77
2023/09/15 06:55:23;;;;;;;0.65;0.63;;;;;;;;;;5077560;28;20089;-78
2023/09/15 06:57:51;;;;;;;1.27;1.05;;;;;;;;;;5078346;28;20039;-78
2023/09/15 07:00:17;;;;;;;1.23;0.90;;;;;;;;;;5077741;28;20040;-78
2023/09/15 07:02:43;;;;;;;1.20;0.90;;;;;;;;;;5078222;28;20061;-78
2023/09/15 07:05:10;;;;;;;0.88;0.77;;;;;;;;;;5095583;28;20540;-77
2023/09/15 07:07:37;;;;;;;2.30;1.23;;;;;;;;;;5077661;28;20062;-77
2023/09/15 07:10:04;;;;;;;1.42;1.10;;;;;;;;;;5077129;28;20483;-78
2023/09/15 07:12:30;;;;;;;3.33;1.20;;;;;;;;;;5095389;28;20017;-77
2023/09/15 07:14:57;;;;;;;1.08;0.70;;;;;;;;;;5077434;28;20475;-79
2023/09/15 07:17:23;;;;;;;0.85;0.77;;;;;;;;;;5077144;28;20433;-78
2023/09/15 07:19:49;;;;;;;1.45;0.95;;;;;;;;;;5094534;28;20097;-79
2023/09/15 07:22:15;;;;;;;1.67;0.85;;;;;;;;;;5097536;28;20050;-79
2023/09/15 07:24:41;;;;;;;0.98;0.88;;;;;;;;;;5130261;27;20028;-79
2023/09/15 07:27:11;;;;;;;1.55;0.80;;;;;;;;;;5120659;27;20036;-79
2023/09/15 07:29:37;;;;;;;1.45;1.10;;;;;;;;;;5100457;28;20023;-80
2023/09/15 07:32:04;;;;;;;1.67;0.98;;;;;;;;;;5097406;28;20063;-79
2023/09/15 07:34:30;;;;;;;1.55;0.90;;;;;;;;;;5079022;28;20076;-79
2023/09/15 07:36:56;;;;;;;1.45;1.13;;;;;;;;;;5077045;28;20024;-82
2023/09/15 07:39:22;;;;;;;2.03;0.93;;;;;;;;;;5077017;28;20031;-83
2023/09/15 07:41:49;;;;;;;1.80;1.02;;;;;;;;;;5075637;28;20016;-77
2023/09/15 07:44:15;;;;;;;1.65;1.00;;;;;;;;;;5094661;28;20077;-77
2023/09/15 07:46:41;;;;;;;2.65;0.88;;;;;;;;;;5094567;28;20024;-77
2023/09/15 07:49:08;;;;;;;1.30;0.82;;;;;;;;;;5076882;28;20016;-78
2023/09/15 07:51:34;;;;;;;1.30;0.90;;;;;;;;;;5094478;28;20035;-77
2023/09/15 07:54:00;;;;;;;1.80;0.88;;;;;;;;;;5076481;28;20024;-77
2023/09/15 07:56:27;;;;;;;1.73;1.00;;;;;;;;;;5076601;28;20533;-80
2023/09/15 07:58:53;;;;;;;3.67;0.90;;;;;;;;;;5076487;28;20032;-79
2023/09/15 08:01:19;;;;;;;1.45;1.20;;;;;;;;;;5076252;28;20028;-78
2023/09/15 08:03:46;;;;;;;1.30;0.98;;;;;;;;;;5076483;28;20024;-77
2023/09/15 08:06:12;;;;;;;1.63;0.90;;;;;;;;;;5076376;28;20031;-77
2023/09/15 08:08:38;;;;;;;2.38;1.00;;;;;;;;;;5076175;28;20016;-76
2023/09/15 08:11:04;;;;;;;3.00;1.23;;;;;;;;;;5059505;28;20409;-78
2023/09/15 08:13:30;;;;;;;1.17;1.00;;;;;;;;;;5056420;28;20025;-77
2023/09/15 08:15:57;;;;;;;1.92;1.23;;;;;;;;;;5057523;28;20024;-78
2023/09/15 08:18:23;;;;;;;1.23;1.10;;;;;;;;;;5056222;28;20049;-80
2023/09/15 08:20:49;;;;;;;0.88;0.70;;;;;;;;;;5055842;28;20512;-77
2023/09/15 08:23:15;;;;;;;0.70;0.70;;;;;;;;;;5073992;28;20100;-78
2023/09/15 08:25:42;;;;;;;3.10;1.52;;;;;;;;;;5074064;28;20078;-77
2023/09/15 08:28:09;;;;;;;2.05;1.08;;;;;;;;;;5055720;28;20070;-78
2023/09/15 08:30:38;;;;;;;1.73;1.08;;;;;;;;;;5056639;28;20025;-77
2023/09/15 08:33:05;;;;;;;1.13;1.02;;;;;;;;;;5055552;28;20026;-76
2023/09/15 08:35:32;;;;;;;0.50;0.50;;;;;;;;;;5073313;28;20025;-81
2023/09/15 08:37:58;;;;;;;2.28;0.95;;;;;;;;;;5056161;28;20036;-82
2023/09/15 08:40:24;;;;;;;2.08;0.93;;;;;;;;;;5055846;28;20062;-79
2023/09/15 08:42:50;;;;;;;1.98;1.20;;;;;;;;;;5055873;28;20078;-81
2023/09/15 08:45:19;;;;;;;1.10;0.88;;;;;;;;;;5074015;28;20052;-82
2023/09/15 08:47:47;;;;;;;1.63;0.90;;;;;;;;;;5056478;28;20021;-83
2023/09/15 08:50:14;;;;;;;2.03;1.08;;;;;;;;;;5056014;28;20025;-82
2023/09/15 08:52:41;;;;;;;1.75;0.90;;;;;;;;;;5049758;28;20094;-82
2023/09/15 08:55:07;;;;;;;1.58;0.98;;;;;;;;;;5053347;28;20032;-82
2023/09/15 08:57:34;;;;;;;1.08;0.70;;;;;;;;;;5055587;28;20028;-80
2023/09/15 09:00:01;;;;;;;2.03;1.13;;;;;;;;;;5073720;28;20071;-80
2023/09/15 09:02:28;;;;;;;1.50;0.70;;;;;;;;;;5055307;28;20021;-79
2023/09/15 09:04:54;;;;;;;1.13;0.68;;;;;;;;;;5073346;28;20055;-79
2023/09/15 09:07:21;;;;;;;2.10;0.82;;;;;;;;;;5055593;28;20028;-80
2023/09/15 09:09:48;;;;;;;1.73;0.90;;;;;;;;;;5053416;28;20048;-80
2023/09/15 09:12:14;;;;;;;1.15;0.90;;;;;;;;;;5053838;28;20021;-80
2023/09/15 09:14:41;;;;;;;1.33;0.75;;;;;;;;;;5053394;28;20035;-80
2023/09/15 09:17:08;;;;;;;0.82;0.73;;;;;;;;;;5053479;28;20463;-81
2023/09/15 09:19:35;;;;;;;1.38;0.98;;;;;;;;;;5071893;28;20048;-79
2023/09/15 09:22:01;;;;;;;1.35;0.82;;;;;;;;;;5053695;28;20024;-80
2023/09/15 09:24:28;;;;;;;0.75;0.60;;;;;;;;;;5054468;28;20025;-80
2023/09/15 09:26:54;;;;;;;1.08;0.70;;;;;;;;;;5054992;28;20476;-80
2023/09/15 09:29:28;;;;;;;1.42;0.85;;;;;;;;;;5054139;28;20036;-80
2023/09/15 09:31:55;;;;;;;1.95;1.10;;;;;;;;;;5054194;28;20028;-81
2023/09/15 09:34:21;;;;;;;0.60;0.60;;;;;;;;;;5054500;28;20411;-81
2023/09/15 09:36:48;;;;;;;1.77;0.88;;;;;;;;;;5055024;28;20072;-82
2023/09/15 09:39:14;;;;;;;1.35;0.80;;;;;;;;;;5073213;28;20017;-81
2023/09/15 09:41:42;;;;;;;1.45;0.70;;;;;;;;;;5073230;28;20027;-81
2023/09/15 09:44:08;;;;;;;1.67;0.90;;;;;;;;;;5055254;28;20021;-81
2023/09/15 09:46:36;;;;;;;2.65;0.77;;;;;;;;;;5054817;28;20021;-81
2023/09/15 09:49:03;;;;;;;0.82;0.82;;;;;;;;;;5058594;28;20023;-81
2023/09/15 09:51:29;;;;;;;1.83;1.35;;;;;;;;;;5059166;28;20376;-80
2023/09/15 09:53:56;;;;;;;0.93;0.70;;;;;;;;;;5076519;28;20025;-80
2023/09/15 09:56:23;;;;;;;1.55;1.00;;;;;;;;;;5058943;28;20029;-80
2023/09/15 09:58:49;;;;;;;1.00;0.70;;;;;;;;;;5058829;28;20040;-81
2023/09/15 10:01:16;;;;;;;1.77;1.00;;;;;;;;;;5059216;28;20025;-80
2023/09/15 10:03:42;;;;;;;1.27;0.85;;;;;;;;;;5079243;28;20032;-80
2023/09/15 10:06:08;;;;;;;0.60;0.57;;;;;;;;;;5060700;28;20033;-79
2023/09/15 10:08:39;;;;;;;0.98;0.70;;;;;;;;;;5058470;28;20099;-81
2023/09/15 10:11:06;;;;;;;0.98;0.80;;;;;;;;;;5093491;28;20044;-81
2023/09/15 10:13:32;;;;;;;1.55;0.77;;;;;;;;;;5078390;28;20025;-80
2023/09/15 10:15:59;;;;;;;1.35;0.75;;;;;;;;;;5096796;28;20024;-80
2023/09/15 10:18:25;;;;;;;1.15;0.90;;;;;;;;;;5098154;28;20020;-82
2023/09/15 10:20:54;;;;;;;2.22;0.80;;;;;;;;;;5078170;28;20059;-82
2023/09/15 10:23:21;;;;;;;2.55;1.20;;;;;;;;;;5078561;28;20388;-80
2023/09/15 10:25:49;;;;;;;1.02;0.90;;;;;;;;;;5078565;28;20082;-80
2023/09/15 10:28:17;;;;;;;1.33;0.90;;;;;;;;;;5078261;28;20024;-82
2023/09/15 10:30:43;;;;;;;1.20;0.88;;;;;;;;;;5078253;28;20044;-80
2023/09/15 10:33:10;;;;;;;1.80;0.90;;;;;;;;;;5078376;28;20105;-80
2023/09/15 10:35:39;;;;;;;1.20;0.68;;;;;;;;;;5095935;28;20024;-80
2023/09/15 10:38:05;;;;;;;1.80;0.93;;;;;;;;;;5078361;28;20030;-81
2023/09/15 10:40:45;;;;;;;0.90;0.70;;;;;;;;;;5077923;28;20101;-82
2023/09/15 10:43:12;;;;;;;2.53;0.93;;;;;;;;;;5078128;28;20028;-81
2023/09/15 10:45:38;;;;;;;1.42;0.75;;;;;;;;;;5078175;28;20491;-79
2023/09/15 10:48:04;;;;;;;1.42;0.82;;;;;;;;;;5077756;28;20058;-81
2023/09/15 10:50:31;;;;;;;0.82;0.60;;;;;;;;;;5077939;28;20056;-82
2023/09/15 10:53:07;;;;;;;1.27;0.70;;;;;;;;;;5078700;28;20077;-81
2023/09/15 10:55:33;;;;;;;1.58;0.93;;;;;;;;;;5095826;28;20052;-80
2023/09/15 10:58:00;;;;;;;1.00;0.80;;;;;;;;;;5077741;28;20035;-81
2023/09/15 11:00:26;;;;;;;0.80;0.68;;;;;;;;;;5077794;28;20055;-81
2023/09/15 11:02:53;;;;;;;0.80;0.63;;;;;;;;;;5077261;28;20074;-81
2023/09/15 11:05:19;;;;;;;1.17;0.73;;;;;;;;;;5077689;28;20032;-81
2023/09/15 11:07:47;;;;;;;1.02;0.98;;;;;;;;;;5077755;28;20581;-80
2023/09/15 11:10:13;;;;;;;2.20;0.95;;;;;;;;;;5083037;28;20048;-80
2023/09/15 11:12:39;;;;;;;1.10;0.77;;;;;;;;;;5094365;28;20024;-80
2023/09/15 11:15:06;;;;;;;1.95;1.00;;;;;;;;;;5094377;28;20020;-81
2023/09/15 11:17:32;;;;;;;0.77;0.60;;;;;;;;;;5094127;28;20028;-81
2023/09/15 11:20:04;;;;;;;1.08;0.63;;;;;;;;;;5102608;28;20008;-79
2023/09/15 11:22:30;;;;;;;1.25;0.90;;;;;;;;;;5117862;28;20024;-79
2023/09/15 11:24:57;;;;;;;1.58;0.77;;;;;;;;;;5105438;28;20054;-80
2023/09/15 11:27:23;;;;;;;1.13;0.68;;;;;;;;;;5104521;28;20034;-79
2023/09/15 11:29:49;;;;;;;1.52;0.55;;;;;;;;;;5095830;28;20024;-81
2023/09/15 11:32:15;;;;;;;1.95;1.10;;;;;;;;;;5097724;28;20086;-80
2023/09/15 11:34:41;;;;;;;0.75;0.70;;;;;;;;;;5075475;28;20024;-81
2023/09/15 11:37:08;;;;;;;1.52;0.82;;;;;;;;;;5076589;28;20024;-80
2023/09/15 11:39:35;;;;;;;0.88;0.60;;;;;;;;;;5076737;28;20524;-79
2023/09/15 11:42:09;;;;;;;0.95;0.65;;;;;;;;;;5076678;28;20490;-79
2023/09/15 11:44:35;;;;;;;0.35;0.35;;;;;;;;;;5094325;28;20024;-80
2023/09/15 11:47:02;;;;;;;0.73;0.60;;;;;;;;;;5076468;28;20023;-80
2023/09/15 11:49:29;;;;;;;1.98;0.90;;;;;;;;;;5076570;28;20020;-79
2023/09/15 11:51:56;;;;;;;1.02;0.63;;;;;;;;;;5076201;28;20016;-80
2023/09/15 11:54:23;;;;;;;1.40;0.90;;;;;;;;;;5094651;28;20019;-80
2023/09/15 11:56:49;;;;;;;1.10;0.47;;;;;;;;;;5094151;28;20033;-80
2023/09/15 11:59:16;;;;;;;0.88;0.60;;;;;;;;;;5075995;28;20050;-80
2023/09/15 12:01:42;;;;;;;1.15;0.65;;;;;;;;;;5076193;28;20023;-80
2023/09/15 12:04:09;;;;;;;0.30;0.30;;;;;;;;;;5076086;28;20463;-81
2023/09/15 12:06:35;;;;;;;1.77;0.70;;;;;;;;;;5075578;28;20056;-80
2023/09/15 12:09:02;;;;;;;1.35;0.90;;;;;;;;;;5076098;28;20028;-80
2023/09/15 12:11:29;;;;;;;2.70;0.85;;;;;;;;;;5069658;28;20051;-80
2023/09/15 12:13:56;;;;;;;0.43;0.43;;;;;;;;;;5064681;28;20464;-80
2023/09/15 12:16:31;;;;;;;1.08;0.63;;;;;;;;;;5063335;28;20120;-80
2023/09/15 12:19:01;;;;;;;1.63;0.70;;;742.60;2380.80;;;;;;5072165;28;20024;-80
2023/09/15 12:21:28;;;;;;;0.70;0.50;;;742.60;2355.20;;;;;;5060968;28;20471;-79
2023/09/15 12:23:57;;;;;;;1.10;0.77;;;;;;;;;;5066995;28;20111;-80
2023/09/15 12:26:24;;;;;;;0.70;0.50;;;;;;;;;;5068186;28;20032;-80
2023/09/15 12:28:53;;;;;;;1.30;0.73;;;;;;;;;;5077570;28;20028;-80
2023/09/15 12:31:22;;;;;;;1.10;0.55;;;743.20;2278.40;;;;;;5090409;28;20452;-80
2023/09/15 12:33:53;;;;;;;1.25;0.80;;;743.00;2304.00;;;;;;5063187;28;20522;-80
2023/09/15 12:36:22;;;;;;;1.10;0.80;;;;;;;;;;5081351;28;20074;-81
2023/09/15 12:38:50;;;;;;;1.65;0.68;;;;;;;;;;5071760;28;20501;-81
2023/09/15 12:41:20;;;;;;;1.35;0.80;;;;;;;;;;5061515;28;20022;-81
2023/09/15 12:43:46;;;;;;;1.00;0.70;;;;;;;;;;5068028;28;20043;-81
2023/09/15 12:46:13;;;;;;;1.17;0.60;;;;;;;;;;5066648;28;20038;-81
2023/09/15 12:48:39;;;;;;;1.55;0.85;;;;;;;;;;5060335;28;20071;-81
2023/09/15 12:51:05;;;;;;;0.85;0.57;;;;;;;;;;5071953;28;20016;-81
2023/09/15 12:53:31;;;;;;;0.98;0.60;;;;;;;;;;5060479;28;20036;-81
2023/09/15 12:56:00;;;;;;;0.65;0.47;;;;;;;;;;5084395;28;20052;-81
2023/09/15 12:58:26;;;;;;;0.93;0.63;;;;;;;;;;5068439;28;20228;-81
2023/09/15 13:00:52;;;;;;;0.98;0.63;;;;;;;;;;5058240;28;20059;-81
2023/09/15 13:03:21;;;;;;;1.48;0.70;;;;;;;;;;5071626;28;20067;-81
2023/09/15 13:05:47;;;;;;;1.95;0.65;;;;;;;;;;5062974;28;20016;-81
2023/09/15 13:08:13;;;;;;;1.50;0.88;;;;;;;;;;5081590;28;20028;-81
2023/09/15 13:10:40;;;;;;;0.68;0.50;;;;;;;;;;5087536;28;20051;-81
2023/09/15 13:13:08;;;;;;;1.02;0.80;;;;;;;;;;5058516;28;20098;-81
2023/09/15 13:15:34;;;;;;;1.00;0.73;;;;;;;;;;5068992;28;20024;-81
2023/09/15 13:18:01;;;;;;;0.95;0.60;;;;;;;;;;5055541;28;20028;-82
2023/09/15 13:20:26;;;;;;;1.45;0.90;;;717.40;2304.00;;;;;;5072337;28;20032;-82
2023/09/15 13:22:52;;;;;;;0.50;0.50;;;;;;;;;;5056821;28;20024;-80
2023/09/15 13:25:18;;;;;;;2.90;1.13;;;;;;;;;;5057756;28;20025;-81
2023/09/15 13:27:44;;;;;;;0.77;0.57;;;717.50;2304.00;;;;;;5059405;28;20016;-82
2023/09/15 13:30:13;;;;;;;0.77;0.60;;;717.60;2329.60;;;;;;5059237;28;20029;-81
2023/09/15 13:32:39;;;;;;;2.10;0.90;;;717.40;2329.60;;;;;;5055192;28;20383;-82
2023/09/15 13:35:06;;;;;;;0.88;0.60;;;;;;;;;;5059292;28;20357;-82
2023/09/15 13:37:32;;;;;;;1.08;0.73;;;;;;;;;;5058903;28;20029;-81
2023/09/15 13:39:58;;;;;;;1.30;0.80;;;;;;;;;;5077297;28;20025;-81
2023/09/15 13:42:34;;;;;;;0.88;0.60;;;;;;;;;;5058645;28;20113;-82
2023/09/15 13:45:01;;;;;;;0.85;0.60;;;;;;;;;;5059046;28;20035;-80
2023/09/15 13:47:31;;;;;;;1.75;0.90;;;;;;;;;;5059037;28;20024;-81
2023/09/15 13:49:58;;;;;;;1.08;0.50;;;;;;;;;;5058751;28;20123;-80
2023/09/15 13:52:25;;;;;;;0.75;0.50;;;;;;;;;;5059043;28;20593;-83
2023/09/15 13:54:52;;;;;;;1.55;0.80;;;;;;;;;;5059349;28;20460;-86
2023/09/15 13:57:19;;;;;;;1.23;0.60;;;;;;;;;;5058659;28;20021;-80
2023/09/15 13:59:45;;;;;;;2.22;1.00;;;;;;;;;;5058957;28;20533;-83
2023/09/15 14:02:11;;;;;;;1.65;0.63;;;;;;;;;;5076895;28;20376;-82
2023/09/15 14:04:37;;;;;;;1.25;0.68;;;;;;;;;;5058551;28;20036;-82
2023/09/15 14:07:05;;;;;;;1.13;0.75;;;;;;;;;;5058911;28;20028;-82
2023/09/15 14:09:36;;;;;;;1.17;0.63;;;;;;;;;;5061863;28;20063;-76
2023/09/15 14:12:02;;;;;;;0.85;0.70;;;;;;;;;;5078898;28;20016;-77
2023/09/15 14:14:28;;;;;;;1.88;0.60;;;;;;;;;;5078024;28;20031;-77
2023/09/15 14:16:54;;;;;;;4.07;1.25;;;;;;;;;;5078605;28;20060;-78
2023/09/15 14:19:20;;;;;;;2.13;1.02;;;;;;;;;;5096473;28;20024;-77
2023/09/15 14:21:48;;;;;;;1.52;0.75;;;;;;;;;;5078330;28;20371;-77
2023/09/15 14:24:15;;;;;;;0.75;0.70;;;;;;;;;;5078399;28;20017;-77
2023/09/15 14:26:41;;;;;;;1.73;1.05;;;;;;;;;;5078346;28;20035;-79
2023/09/15 14:29:08;;;;;;;0.63;0.50;;;;;;;;;;5078028;28;20020;-78
2023/09/15 14:31:34;;;;;;;2.30;1.00;;;;;;;;;;5078219;28;20024;-77
2023/09/15 14:34:00;;;;;;;0.95;0.63;;;;;;;;;;5095886;28;20055;-78
2023/09/15 14:36:26;;;;;;;1.02;0.60;;;;;;;;;;5077772;28;20028;-81